createdAt,value
2018-12-11T00:00:37.630Z,8.23
2018-12-11T00:03:05.175Z,8.17
2018-12-11T00:05:32.683Z,9.07
2018-12-11T00:08:00.154Z,8.87
2018-12-11T00:10:27.650Z,8.13
2018-12-11T00:12:55.130Z,8.10
2018-12-11T00:15:22.632Z,8.30
2018-12-11T00:17:50.110Z,8.23
2018-12-11T00:20:17.599Z,7.80
2018-12-11T00:22:45.075Z,7.73
2018-12-11T00:25:12.638Z,8.20
2018-12-11T00:27:40.110Z,8.10
2018-12-11T00:30:07.677Z,8.10
2018-12-11T00:32:35.147Z,7.83
2018-12-11T00:35:02.774Z,7.87
2018-12-11T00:37:30.254Z,7.60
2018-12-11T00:39:57.751Z,7.70
2018-12-11T00:42:25.227Z,8.27
2018-12-11T00:44:52.719Z,7.73
2018-12-11T00:47:20.920Z,7.73
2018-12-11T00:49:48.511Z,8.17
2018-12-11T00:52:15.987Z,7.43
2018-12-11T00:54:43.490Z,7.40
2018-12-11T00:57:10.983Z,7.87
2018-12-11T00:59:38.454Z,7.90
2018-12-11T01:02:06.020Z,7.37
2018-12-11T01:04:33.490Z,7.73
2018-12-11T01:07:00.989Z,7.23
2018-12-11T01:09:28.479Z,7.93
2018-12-11T01:11:55.970Z,7.03
2018-12-11T01:14:23.442Z,7.67
2018-12-11T01:16:50.938Z,7.67
2018-12-11T01:19:18.415Z,7.60
2018-12-11T01:21:45.907Z,7.90
2018-12-11T01:24:13.378Z,7.30
2018-12-11T01:26:40.883Z,7.20
2018-12-11T01:29:08.355Z,8.17
2018-12-11T01:31:35.846Z,7.67
2018-12-11T01:34:03.446Z,7.63
2018-12-11T01:36:30.944Z,7.23
2018-12-11T01:38:58.413Z,7.27
2018-12-11T01:41:25.998Z,7.53
2018-12-11T01:43:53.471Z,7.60
2018-12-11T01:46:20.976Z,8.07
2018-12-11T01:48:48.460Z,7.03
2018-12-11T01:51:15.972Z,7.33
2018-12-11T01:53:43.448Z,7.67
2018-12-11T01:56:10.954Z,7.70
2018-12-11T01:58:38.438Z,7.77
2018-12-11T02:01:05.939Z,7.27
2018-12-11T02:03:33.415Z,7.00
2018-12-11T02:06:00.927Z,7.13
2018-12-11T02:08:28.402Z,7.40
2018-12-11T02:10:55.895Z,7.43
2018-12-11T02:13:23.386Z,7.77
2018-12-11T02:15:50.896Z,7.30
2018-12-11T02:18:18.465Z,7.20
2018-12-11T02:20:45.970Z,7.97
2018-12-11T02:23:13.480Z,7.30
2018-12-11T02:25:40.980Z,6.87
2018-12-11T02:28:08.475Z,7.20
2018-12-11T02:30:35.956Z,7.40
2018-12-11T02:33:03.464Z,6.93
2018-12-11T02:35:31.011Z,7.70
2018-12-11T02:37:58.521Z,7.23
2018-12-11T02:40:26.016Z,7.00
2018-12-11T02:42:53.522Z,7.80
2018-12-11T02:45:21.008Z,7.43
2018-12-11T02:47:48.527Z,7.50
2018-12-11T02:50:16.008Z,7.60
2018-12-11T02:52:43.509Z,7.57
2018-12-11T02:55:10.989Z,7.77
2018-12-11T02:57:38.496Z,7.03
2018-12-11T03:00:07.322Z,7.30
2018-12-11T03:02:35.145Z,7.33
2018-12-11T03:05:02.872Z,7.73
2018-12-11T03:07:30.369Z,7.30
2018-12-11T03:09:57.848Z,7.57
2018-12-11T03:12:25.351Z,6.70
2018-12-11T03:14:52.832Z,7.00
2018-12-11T03:17:20.348Z,7.50
2018-12-11T03:19:47.836Z,7.03
2018-12-11T03:22:15.357Z,7.57
2018-12-11T03:24:42.848Z,7.07
2018-12-11T03:27:10.347Z,7.37
2018-12-11T03:29:37.828Z,7.40
2018-12-11T03:32:05.345Z,6.63
2018-12-11T03:34:32.824Z,6.73
2018-12-11T03:37:00.324Z,7.60
2018-12-11T03:39:27.816Z,6.97
2018-12-11T03:41:55.394Z,7.33
2018-12-11T03:44:22.876Z,7.00
2018-12-11T03:46:50.391Z,7.47
2018-12-11T03:49:17.893Z,7.03
2018-12-11T03:51:45.375Z,7.50
2018-12-11T03:54:12.876Z,6.83
2018-12-11T03:56:40.357Z,6.90
2018-12-11T03:59:07.861Z,7.40
2018-12-11T04:01:35.346Z,7.60
2018-12-11T04:04:02.852Z,7.07
2018-12-11T04:06:30.327Z,7.30
2018-12-11T04:08:57.831Z,7.37
2018-12-11T04:11:25.311Z,7.30
2018-12-11T04:13:52.803Z,7.37
2018-12-11T04:16:20.362Z,7.43
2018-12-11T04:18:47.862Z,7.27
2018-12-11T04:21:15.416Z,7.00
2018-12-11T04:23:42.924Z,6.80
2018-12-11T04:26:10.405Z,6.97
2018-12-11T04:28:37.919Z,7.97
2018-12-11T04:31:05.406Z,7.80
2018-12-11T04:33:32.911Z,6.97
2018-12-11T04:36:00.400Z,7.10
2018-12-11T04:38:27.909Z,7.20
2018-12-11T04:40:55.389Z,7.10
2018-12-11T04:43:22.960Z,7.07
2018-12-11T04:45:50.445Z,6.97
2018-12-11T04:48:17.943Z,7.03
2018-12-11T04:50:45.419Z,7.53
2018-12-11T04:53:12.921Z,7.37
2018-12-11T04:55:40.395Z,7.53
2018-12-11T04:58:07.922Z,7.50
2018-12-11T05:00:35.407Z,7.13
2018-12-11T05:03:02.980Z,7.47
2018-12-11T05:05:30.467Z,7.60
2018-12-11T05:07:57.974Z,7.40
2018-12-11T05:10:25.765Z,7.63
2018-12-11T05:12:53.283Z,7.10
2018-12-11T05:15:20.768Z,7.40
2018-12-11T05:17:48.279Z,6.87
2018-12-11T05:20:15.756Z,7.43
2018-12-11T05:22:43.236Z,7.63
2018-12-11T05:25:10.745Z,6.77
2018-12-11T05:27:38.298Z,7.47
2018-12-11T05:30:07.443Z,8.07
2018-12-11T05:32:34.923Z,15.83
2018-12-11T05:35:02.500Z,7.90
2018-12-11T05:37:30.012Z,7.63
2018-12-11T05:39:57.588Z,7.57
2018-12-11T05:42:25.085Z,7.37
2018-12-11T05:44:52.661Z,8.43
2018-12-11T05:47:20.141Z,8.33
2018-12-11T05:49:47.653Z,8.30
2018-12-11T05:52:15.131Z,8.23
2018-12-11T05:54:42.630Z,8.93
2018-12-11T05:57:10.129Z,8.70
2018-12-11T05:59:37.638Z,8.43
2018-12-11T06:02:05.125Z,7.97
2018-12-11T06:04:32.632Z,8.10
2018-12-11T06:07:00.116Z,8.97
2018-12-11T06:09:27.615Z,8.80
2018-12-11T06:11:55.097Z,8.43
2018-12-11T06:14:22.604Z,8.70
2018-12-11T06:16:50.096Z,8.80
2018-12-11T06:19:17.776Z,8.10
2018-12-11T06:21:45.259Z,8.63
2018-12-11T06:24:12.768Z,8.83
2018-12-11T06:26:40.247Z,8.93
2018-12-11T06:29:07.743Z,8.83
2018-12-11T06:31:35.238Z,8.47
2018-12-11T06:34:02.743Z,9.00
2018-12-11T06:36:30.224Z,8.83
2018-12-11T06:38:57.735Z,8.60
2018-12-11T06:41:25.215Z,8.87
2018-12-11T06:43:52.720Z,8.33
2018-12-11T06:46:20.272Z,8.03
2018-12-11T06:48:47.767Z,8.70
2018-12-11T06:51:15.243Z,8.73
2018-12-11T06:53:42.729Z,8.50
2018-12-11T06:56:10.243Z,9.47
2018-12-11T06:58:37.719Z,9.03
2018-12-11T07:01:05.221Z,9.07
2018-12-11T07:03:32.708Z,9.10
2018-12-11T07:06:00.203Z,8.97
2018-12-11T07:08:27.699Z,9.17
2018-12-11T07:10:55.209Z,9.07
2018-12-11T07:13:22.720Z,8.50
2018-12-11T07:15:50.218Z,9.40
2018-12-11T07:18:17.701Z,9.60
2018-12-11T07:20:45.322Z,7.53
2018-12-11T07:23:12.795Z,7.00
2018-12-11T07:25:40.373Z,7.03
2018-12-11T07:28:07.872Z,6.80
2018-12-11T07:30:35.371Z,6.77
2018-12-11T07:33:02.847Z,8.10
2018-12-11T07:35:30.355Z,7.47
2018-12-11T07:37:57.836Z,7.53
2018-12-11T07:40:25.331Z,7.60
2018-12-11T07:42:52.811Z,7.83
2018-12-11T07:45:20.311Z,8.10
2018-12-11T07:47:47.797Z,7.63
2018-12-11T07:50:15.296Z,7.53
2018-12-11T07:52:42.782Z,7.97
2018-12-11T07:55:10.364Z,7.27
2018-12-11T07:57:37.835Z,7.57
2018-12-11T08:00:06.994Z,7.83
2018-12-11T08:02:34.475Z,7.77
2018-12-11T08:05:01.976Z,7.40
2018-12-11T08:07:29.454Z,7.63
2018-12-11T08:09:56.960Z,8.07
2018-12-11T08:12:24.448Z,7.97
2018-12-11T08:14:51.947Z,8.60
2018-12-11T08:17:19.429Z,8.00
2018-12-11T08:19:46.926Z,7.40
2018-12-11T08:22:14.407Z,8.23
2018-12-11T08:24:41.920Z,7.73
2018-12-11T08:27:09.404Z,7.87
2018-12-11T08:29:36.899Z,7.97
2018-12-11T08:32:04.418Z,7.27
2018-12-11T08:34:31.907Z,8.50
2018-12-11T08:36:59.406Z,7.93
2018-12-11T08:39:27.190Z,8.33
2018-12-11T08:41:54.913Z,7.57
2018-12-11T08:44:22.402Z,7.87
2018-12-11T08:46:49.917Z,8.37
2018-12-11T08:49:17.395Z,8.43
2018-12-11T08:51:44.974Z,8.30
2018-12-11T08:54:12.460Z,8.23
2018-12-11T08:56:39.965Z,7.87
2018-12-11T08:59:07.444Z,8.27
2018-12-11T09:01:34.949Z,8.30
2018-12-11T09:04:02.431Z,7.80
2018-12-11T09:06:29.927Z,8.07
2018-12-11T09:08:57.412Z,8.20
2018-12-11T09:11:24.917Z,7.93
2018-12-11T09:13:52.399Z,8.33
2018-12-11T09:16:20.007Z,8.07
2018-12-11T09:18:47.497Z,8.50
2018-12-11T09:21:14.986Z,8.27
2018-12-11T09:23:42.463Z,8.37
2018-12-11T09:26:09.969Z,8.40
2018-12-11T09:28:37.453Z,8.70
2018-12-11T09:31:04.956Z,7.93
2018-12-11T09:33:32.436Z,8.57
2018-12-11T09:35:59.943Z,8.20
2018-12-11T09:38:27.425Z,8.40
2018-12-11T09:40:54.927Z,8.47
2018-12-11T09:43:22.472Z,8.87
2018-12-11T09:45:49.976Z,8.53
2018-12-11T09:48:17.452Z,8.73
2018-12-11T09:50:44.960Z,7.90
2018-12-11T09:53:12.439Z,8.57
2018-12-11T09:55:39.962Z,8.03
2018-12-11T09:58:07.448Z,8.50
2018-12-11T10:00:34.978Z,7.93
2018-12-11T10:03:02.552Z,8.03
2018-12-11T10:05:30.027Z,8.43
2018-12-11T10:07:57.525Z,7.43
2018-12-11T10:10:25.029Z,8.17
2018-12-11T10:12:52.535Z,8.13
2018-12-11T10:15:20.026Z,8.60
2018-12-11T10:17:47.526Z,8.20
2018-12-11T10:20:15.392Z,8.47
2018-12-11T10:22:42.887Z,7.80
2018-12-11T10:25:10.438Z,8.20
2018-12-11T10:27:37.936Z,7.63
2018-12-11T10:30:08.557Z,8.10
2018-12-11T10:32:36.126Z,8.00
2018-12-11T10:35:04.240Z,7.87
2018-12-11T10:37:31.790Z,7.73
2018-12-11T10:39:59.349Z,8.07
2018-12-11T10:42:26.847Z,7.53
2018-12-11T10:44:54.319Z,8.30
2018-12-11T10:47:22.097Z,7.63
2018-12-11T10:49:49.740Z,7.57
2018-12-11T10:52:17.239Z,7.53
2018-12-11T10:54:44.715Z,7.53
2018-12-11T10:57:12.212Z,7.30
2018-12-11T10:59:39.692Z,7.57
2018-12-11T11:05:16.004Z,7.00
2018-12-11T11:07:43.776Z,7.57
2018-12-11T11:10:11.304Z,7.37
2018-12-11T11:12:38.896Z,7.50
2018-12-11T11:15:06.815Z,7.37
2018-12-11T11:17:34.321Z,7.53
2018-12-11T11:20:01.800Z,6.80
2018-12-11T11:22:29.304Z,7.73
2018-12-11T11:24:56.794Z,7.57
2018-12-11T11:27:24.291Z,7.30
2018-12-11T11:29:51.783Z,7.10
2018-12-11T11:32:19.284Z,7.30
2018-12-11T11:34:46.761Z,7.20
2018-12-11T11:37:14.260Z,7.33
2018-12-11T11:39:41.740Z,7.03
2018-12-11T11:42:09.240Z,6.80
2018-12-11T11:44:36.714Z,6.77
2018-12-11T11:47:04.287Z,7.63
2018-12-11T11:49:31.764Z,7.20
2018-12-11T11:51:59.267Z,7.30
2018-12-11T11:54:26.763Z,6.90
2018-12-11T11:56:54.243Z,7.37
2018-12-11T11:59:21.755Z,6.83
2018-12-11T12:01:49.231Z,7.10
2018-12-11T12:04:16.742Z,7.20
2018-12-11T12:06:44.220Z,6.97
2018-12-11T12:09:11.723Z,6.70
2018-12-11T12:11:39.201Z,7.20
2018-12-11T12:14:06.700Z,6.73
2018-12-11T12:16:34.189Z,6.93
2018-12-11T12:19:01.683Z,7.10
2018-12-11T12:21:29.159Z,6.37
2018-12-11T12:23:56.651Z,6.70
2018-12-11T12:26:24.190Z,6.70
2018-12-11T12:28:51.697Z,6.53
2018-12-11T12:31:19.751Z,6.80
2018-12-11T12:33:48.285Z,6.80
2018-12-11T12:36:15.965Z,6.53
2018-12-11T12:38:43.469Z,6.30
2018-12-11T12:41:10.952Z,6.20
2018-12-11T12:43:38.447Z,6.43
2018-12-11T12:46:05.925Z,6.70
2018-12-11T12:48:33.436Z,6.10
2018-12-11T12:51:00.918Z,6.37
2018-12-11T12:53:28.425Z,6.27
2018-12-11T12:55:55.908Z,6.50
2018-12-11T12:58:23.413Z,6.70
2018-12-11T13:00:50.971Z,6.57
2018-12-11T13:03:18.856Z,6.27
2018-12-11T13:05:46.343Z,6.47
2018-12-11T13:08:13.843Z,6.13
2018-12-11T13:10:41.328Z,6.33
2018-12-11T13:13:09.486Z,6.23
2018-12-11T13:15:37.139Z,6.23
2018-12-11T13:18:04.652Z,6.47
2018-12-11T13:20:32.131Z,6.27
2018-12-11T13:22:59.639Z,6.30
2018-12-11T13:25:27.118Z,6.60
2018-12-11T13:27:54.626Z,5.97
2018-12-11T13:30:22.177Z,6.40
2018-12-11T13:32:49.660Z,6.63
2018-12-11T13:35:17.157Z,6.30
2018-12-11T13:37:44.660Z,6.00
2018-12-11T13:40:12.287Z,5.60
2018-12-11T13:42:39.777Z,6.20
2018-12-11T13:45:07.530Z,6.17
2018-12-11T13:47:35.007Z,6.10
2018-12-11T13:50:02.512Z,6.10
2018-12-11T13:52:29.996Z,6.13
2018-12-11T13:54:57.491Z,6.10
2018-12-11T13:57:24.966Z,6.10
2018-12-11T13:59:52.464Z,5.83
2018-12-11T14:02:19.947Z,5.50
2018-12-11T14:04:47.443Z,6.17
2018-12-11T14:07:14.922Z,6.00
2018-12-11T14:09:42.426Z,6.07
2018-12-11T14:12:10.037Z,6.20
2018-12-11T14:14:37.544Z,5.83
2018-12-11T14:17:05.096Z,5.87
2018-12-11T14:19:32.732Z,5.93
2018-12-11T14:22:00.296Z,5.70
2018-12-11T14:24:27.795Z,5.43
2018-12-11T14:26:55.275Z,5.77
2018-12-11T14:29:22.910Z,5.50
2018-12-11T14:31:50.382Z,6.17
2018-12-11T14:34:17.892Z,5.80
2018-12-11T14:36:45.439Z,5.87
2018-12-11T14:39:12.994Z,5.80
2018-12-11T14:41:40.481Z,6.00
2018-12-11T14:44:07.983Z,6.00
2018-12-11T14:46:35.532Z,5.50
2018-12-11T14:49:03.105Z,6.00
2018-12-11T14:51:30.593Z,5.73
2018-12-11T14:53:58.268Z,5.60
2018-12-11T14:56:25.744Z,5.77
2018-12-11T14:58:53.251Z,5.53
2018-12-11T15:01:20.732Z,5.50
2018-12-11T15:03:48.254Z,5.63
2018-12-11T15:06:15.748Z,5.87
2018-12-11T15:08:43.222Z,5.30
2018-12-11T15:11:10.721Z,5.63
2018-12-11T15:13:38.208Z,5.83
2018-12-11T15:16:06.683Z,5.30
2018-12-11T15:18:34.169Z,5.77
2018-12-11T15:21:01.668Z,5.33
2018-12-11T15:23:29.147Z,5.47
2018-12-11T15:25:56.646Z,5.60
2018-12-11T15:28:24.125Z,5.17
2018-12-11T15:31:13.745Z,5.90
2018-12-11T15:33:41.236Z,5.43
2018-12-11T15:36:08.732Z,4.90
2018-12-11T15:38:36.223Z,5.60
2018-12-11T15:41:03.795Z,5.83
2018-12-11T15:43:31.565Z,5.37
2018-12-11T15:46:01.056Z,5.30
2018-12-11T15:48:28.572Z,5.50
2018-12-11T15:50:56.074Z,5.43
2018-12-11T15:53:23.548Z,5.63
2018-12-11T15:55:51.048Z,5.20
2018-12-11T15:58:24.785Z,5.50
2018-12-11T16:00:48.055Z,5.30
2018-12-11T16:03:15.538Z,5.33
2018-12-11T16:05:43.035Z,5.53
2018-12-11T16:08:10.546Z,5.37
2018-12-11T16:10:38.047Z,5.43
2018-12-11T16:13:05.534Z,5.63
2018-12-11T16:15:33.031Z,5.50
2018-12-11T16:18:00.519Z,5.30
2018-12-11T16:20:28.029Z,5.30
2018-12-11T16:22:55.507Z,5.10
2018-12-11T16:25:23.079Z,5.40
2018-12-11T16:27:50.582Z,5.03
2018-12-11T16:30:18.156Z,5.60
2018-12-11T16:32:45.635Z,5.50
2018-12-11T16:35:13.148Z,5.40
2018-12-11T16:37:40.894Z,5.00
2018-12-11T16:40:08.457Z,5.33
2018-12-11T16:42:35.934Z,5.00
2018-12-11T16:45:04.167Z,5.20
2018-12-11T16:47:31.653Z,5.00
2018-12-11T16:49:59.161Z,5.73
2018-12-11T16:52:26.644Z,5.37
2018-12-11T16:54:54.119Z,4.80
2018-12-11T16:57:21.621Z,5.10
2018-12-11T16:59:49.120Z,5.17
2018-12-11T17:02:16.619Z,5.40
2018-12-11T17:04:44.109Z,5.00
2018-12-11T17:07:12.192Z,5.00
2018-12-11T17:09:41.542Z,4.60
2018-12-11T17:12:09.421Z,4.97
2018-12-11T17:14:36.899Z,4.80
2018-12-11T17:17:04.404Z,5.00
2018-12-11T17:19:31.882Z,5.23
2018-12-11T17:21:59.381Z,5.00
2018-12-11T17:24:26.855Z,5.20
2018-12-11T17:26:54.360Z,5.27
2018-12-11T17:29:24.443Z,5.20
2018-12-11T17:31:51.373Z,5.20
2018-12-11T17:34:18.847Z,4.80
2018-12-11T17:36:46.420Z,5.30
2018-12-11T17:39:13.905Z,4.70
2018-12-11T17:41:41.403Z,4.90
2018-12-11T17:44:08.961Z,4.83
2018-12-11T17:46:36.465Z,4.80
2018-12-11T17:49:04.020Z,5.00
2018-12-11T17:51:31.524Z,4.90
2018-12-11T17:53:59.008Z,4.67
2018-12-11T17:56:26.508Z,4.90
2018-12-11T17:58:53.984Z,5.00
2018-12-11T18:01:23.173Z,5.13
2018-12-11T18:03:50.657Z,4.87
2018-12-11T18:06:18.165Z,4.67
2018-12-11T18:08:45.654Z,4.87
2018-12-11T18:11:13.156Z,4.67
2018-12-11T18:13:40.631Z,5.03
2018-12-11T18:16:08.146Z,4.70
2018-12-11T18:18:35.640Z,4.83
2018-12-11T18:21:03.149Z,4.90
2018-12-11T18:23:30.628Z,4.70
2018-12-11T18:25:58.112Z,5.00
2018-12-11T18:28:25.610Z,4.77
2018-12-11T18:30:53.104Z,5.00
2018-12-11T18:33:20.717Z,4.77
2018-12-11T18:35:48.205Z,4.77
2018-12-11T18:38:15.780Z,4.57
2018-12-11T18:40:43.257Z,4.83
2018-12-11T18:43:10.857Z,4.97
2018-12-11T18:45:38.469Z,4.80
2018-12-11T18:48:06.046Z,4.97
2018-12-11T18:50:34.174Z,4.80
2018-12-11T18:53:01.684Z,4.80
2018-12-11T18:55:29.229Z,4.77
2018-12-11T18:57:56.728Z,4.67
2018-12-11T19:00:24.215Z,4.43
2018-12-11T19:02:51.735Z,4.60
2018-12-11T19:05:19.284Z,4.23
2018-12-11T19:07:46.779Z,4.63
2018-12-11T19:10:14.267Z,4.70
2018-12-11T19:12:41.768Z,4.57
2018-12-11T19:15:09.311Z,4.40
2018-12-11T19:17:36.816Z,4.27
2018-12-11T19:20:05.330Z,4.17
2018-12-11T19:22:32.828Z,4.93
2018-12-11T19:25:00.314Z,4.70
2018-12-11T19:27:27.811Z,4.60
2018-12-11T19:29:55.486Z,4.60
2018-12-11T19:32:23.197Z,4.73
2018-12-11T19:34:50.678Z,4.63
2018-12-11T19:37:18.196Z,4.70
2018-12-11T19:39:45.685Z,4.67
2018-12-11T19:42:13.177Z,4.80
2018-12-11T19:44:40.670Z,4.27
2018-12-11T19:47:08.152Z,4.20
2018-12-11T19:49:35.651Z,4.50
2018-12-11T19:52:03.136Z,4.50
2018-12-11T19:54:30.641Z,4.33
2018-12-11T19:56:58.124Z,4.20
2018-12-11T19:59:25.649Z,4.83
2018-12-11T20:01:53.131Z,4.63
2018-12-11T20:04:21.112Z,4.17
2018-12-11T20:06:48.604Z,4.53
2018-12-11T20:09:16.109Z,4.40
2018-12-11T20:11:43.586Z,3.90
2018-12-11T20:14:11.084Z,4.40
2018-12-11T20:16:38.573Z,4.13
2018-12-11T20:19:06.076Z,4.47
2018-12-11T20:21:33.554Z,4.90
2018-12-11T20:24:04.955Z,4.53
2018-12-11T20:26:30.563Z,4.47
2018-12-11T20:28:59.054Z,4.27
2018-12-11T20:31:26.542Z,4.30
2018-12-11T20:33:54.211Z,4.30
2018-12-11T20:36:21.696Z,4.53
2018-12-11T20:38:49.253Z,4.20
2018-12-11T20:41:16.759Z,4.30
2018-12-11T20:43:44.234Z,3.93
2018-12-11T20:46:11.727Z,4.33
2018-12-11T20:48:39.488Z,4.03
2018-12-11T20:51:07.077Z,4.27
2018-12-11T20:53:34.645Z,4.33
2018-12-11T20:56:02.144Z,3.80
2018-12-11T20:58:29.628Z,4.13
2018-12-11T21:00:57.123Z,3.90
2018-12-11T21:03:24.599Z,4.03
2018-12-11T21:05:52.095Z,4.17
2018-12-11T21:08:19.909Z,4.43
2018-12-11T21:10:47.411Z,4.23
2018-12-11T21:13:14.892Z,3.80
2018-12-11T21:15:42.396Z,3.60
2018-12-11T21:18:09.978Z,4.07
2018-12-11T21:20:37.481Z,4.00
2018-12-11T21:23:05.027Z,3.90
2018-12-11T21:25:32.504Z,4.63
2018-12-11T21:28:00.009Z,4.13
2018-12-11T21:30:27.488Z,3.80
2018-12-11T21:32:54.983Z,4.50
2018-12-11T21:35:22.458Z,3.80
2018-12-11T21:37:49.960Z,4.07
2018-12-11T21:40:17.439Z,3.93
2018-12-11T21:42:45.011Z,3.60
2018-12-11T21:45:12.557Z,4.07
2018-12-11T21:47:40.061Z,4.40
2018-12-11T21:50:07.676Z,4.10
2018-12-11T21:52:35.173Z,3.93
2018-12-11T21:55:03.432Z,4.17
2018-12-11T21:57:30.940Z,4.10
2018-12-11T21:59:58.424Z,3.97
2018-12-11T22:02:25.928Z,3.90
2018-12-11T22:04:53.403Z,3.83
2018-12-11T22:07:20.880Z,3.80
2018-12-11T22:09:49.565Z,4.00
2018-12-11T22:12:17.219Z,4.17
2018-12-11T22:14:44.835Z,4.00
2018-12-11T22:17:12.346Z,3.93
2018-12-11T22:19:39.932Z,3.97
2018-12-11T22:22:07.410Z,4.13
2018-12-11T22:24:34.916Z,4.10
2018-12-11T22:27:02.404Z,3.80
2018-12-11T22:29:29.916Z,3.90
2018-12-11T22:31:57.401Z,3.93
2018-12-11T22:34:24.907Z,3.60
2018-12-11T22:36:52.391Z,3.57
2018-12-11T22:39:19.891Z,3.70
2018-12-11T22:41:47.376Z,4.03
2018-12-11T22:44:14.880Z,4.10
2018-12-11T22:46:42.360Z,3.70
2018-12-11T22:49:09.867Z,3.90
2018-12-11T22:51:37.919Z,3.70
2018-12-11T22:54:05.691Z,3.60
2018-12-11T22:56:33.173Z,4.37
2018-12-11T22:59:00.660Z,3.90
2018-12-11T23:01:28.160Z,3.60
2018-12-11T23:03:55.639Z,3.80
2018-12-11T23:06:23.146Z,4.13
2018-12-11T23:08:50.897Z,4.27
2018-12-11T23:11:18.407Z,3.80
2018-12-11T23:13:45.893Z,3.60
2018-12-11T23:16:13.394Z,4.10
2018-12-11T23:18:40.881Z,4.00
2018-12-11T23:21:08.375Z,3.90
2018-12-11T23:23:35.864Z,3.40
2018-12-11T23:26:03.374Z,3.63
2018-12-11T23:28:30.859Z,3.90
2018-12-11T23:30:58.368Z,3.90
2018-12-11T23:33:25.843Z,3.90
2018-12-11T23:35:53.343Z,3.77
2018-12-11T23:38:20.828Z,3.97
2018-12-11T23:40:48.323Z,3.77
2018-12-11T23:43:15.803Z,3.80
2018-12-11T23:45:43.299Z,3.83
2018-12-11T23:48:10.916Z,3.80
2018-12-11T23:50:38.414Z,3.50
2018-12-11T23:53:05.896Z,3.83
2018-12-11T23:55:33.400Z,3.80
2018-12-11T23:58:00.879Z,3.83
